Create Custom Reports and Graphics: Custom Report

Lindcove R.E.C.

Current Conditions

5/27/24 1:45 AM (-07:00)
Updated Every 15 Minutes
Temp 57.8 °F   2.7
Upper Temp 62.4 °F   1.8
Temp Inversion 4.7 °F   0.9
RH 70 %   8
Dew Pt 48.2 °F   0.3
Wind Dir SW | 231 °
Wind Spd 0.3 mph   1.2
Wind Gust 1.5 mph   0.7
BatVolt 12.6 V   0.0

Today & Yesterday

Lindcove R.E.C.

5/27/24 1:45 AM (-07:00)
Updated Every 15 Minutes
Daily Max Temp 58.7 °F   2.6
Time of Max Temp 0111
Daily Min Temp 57.3 °F   2.5
Time of Min Temp 0144
Upper Max Temp 67.0 °F   5.4
Upper Min Temp 61.9 °F   2.0
Daily Max Wind 3.1 mph   0.9
Time of Max Wind 0117
Max Wind Dir N | 0 °
Daily Rain 0.00 In
Yest MaxT 87.2 °F
Yest MinT 51.1 °F
Yest MaxGst 13.2 mph
Yest Precip 0.00 In
Month Precip 0.62 In
Season Precip 11.56 In

Daily Meteorological Summary

Last 30 Days

Daily Data | America/Los_Angeles
as of 5/27/24 1:56 AM PDT
Date Daily Max Temp (°F) Time of Max Temp Daily Min Temp (°F) Time of Min Temp Daily Rain (In) Season Precip (In) Wind Spd (mph) Daily Max Wind (mph) Time of Max Wind Max Wind Dir (°) Dew Pt (°F) Max RH (%) Min RH (%) Upper Max Temp (°F) Max Upper Temp Time Upper Min Temp (°F) Min Upper Temp Time Max Temp Inversion (°F) Time of Max Temp Inversion Min Temp Inversion (°F) Time of Min Temp Inversion Max 1 Min Rain (In) Max 1 Min Rain Time Max 15 Min Rain (In) Max 15 Min Precip Time Max 60 Min Rain (In) Max 60 Min Rain Time Storm Total (In) MinBV Day (V)
5/26/24 87.2 1607 51.1 0531 0.00 11.56 2.2 13.2 0938 S | 182 48.7 88 26 83.3 1640 53.8 0617 9.8 0057 -7.3 1229 - - - - - - - 12.4
5/25/24 82.5 1601 50.1 0517 0.00 11.56 1.9 13.4 1448 WNW | 301 44.4 76 25 79.0 1645 52.2 0606 8.0 2147 -7.0 1309 - - - - - - - 12.4
5/24/24 87.3 1543 51.1 0535 0.00 11.56 2.4 12.7 1122 WSW | 243 42.5 86 15 82.8 1706 54.5 0519 7.9 0401 -7.0 1522 - - - - - - - 12.4
5/23/24 88.5 1553 52.8 0432 0.00 11.56 2.4 13.4 1618 WSW | 256 46.2 78 21 83.6 1505 56.0 0404 10.8 0238 -7.2 1230 - - - - - - - 12.4
5/22/24 92.1 1602 51.9 0601 0.00 11.56 2.3 12.7 1018 SW | 225 40.6 82 9 88.1 1613 55.7 0524 11.7 2050 -6.3 1601 - - - - - - - 12.4
5/21/24 88.3 1612 51.0 0601 0.00 11.56 2.0 12.1 0953 SW | 230 43.8 86 13 85.0 1535 53.9 0558 9.6 0305 -6.1 1425 - - - - - - - 12.4
5/20/24 85.6 1603 52.8 0557 0.00 11.56 2.2 12.5 1748 NW | 315 45.6 87 14 81.9 1616 56.0 0539 9.8 2308 -6.0 1511 - - - - - - - 12.4
5/19/24 90.4 1542 57.0 0524 0.00 11.56 2.2 13.4 1555 WNW | 286 51.4 83 26 85.8 1540 59.5 0526 8.9 2142 -7.4 1545 - - - - - - - 12.4
5/18/24 91.1 1539 59.3 0551 0.00 11.56 2.5 14.9 1502 W | 267 53.1 83 24 87.1 1711 61.0 0614 4.7 2135 -6.6 1510 - - - - - - - 12.5
5/17/24 92.2 1600 57.8 0553 0.00 11.56 2.0 12.1 1610 WSW | 245 54.5 90 24 88.8 1727 60.1 0605 7.8 2053 -6.0 1210 - - - - - - - 12.4
5/16/24 94.6 1439 60.8 0541 0.00 11.56 1.9 11.8 1439 SW | 215 54.4 84 21 91.4 1656 64.2 0524 9.8 0226 -6.3 1335 - - - - - - - 12.4
5/15/24 94.1 1459 57.2 0559 0.00 11.56 1.7 11.8 1254 WSW | 252 52.1 86 19 92.1 1702 60.1 0553 9.3 0110 -7.0 1410 - - - - - - - 12.4
5/14/24 91.9 1601 56.5 0556 0.00 11.56 2.2 14.9 1000 SW | 227 49.0 79 20 89.1 1524 60.3 0543 8.0 0101 -5.1 1533 - - - - - - - 12.4
5/13/24 94.2 1552 55.9 0615 0.00 11.56 2.6 16.2 1029 SW | 229 48.0 84 17 91.7 1643 58.6 0611 10.8 0203 -6.7 1418 - - - - - - - 12.4
5/12/24 96.3 1508 54.4 0626 0.00 11.56 2.0 12.7 1620 NW | 316 48.2 83 17 92.3 1658 58.5 0618 10.9 0142 -7.2 1241 - - - - - - - 12.4
5/11/24 92.8 1517 53.3 0600 0.00 11.56 1.8 13.4 1629 WNW | 288 44.5 80 13 89.8 1605 56.3 0527 10.4 0404 -6.4 1252 - - - - - - - 12.4
5/10/24 89.5 1440 50.5 0607 0.00 11.56 2.8 20.8 1604 NNE | 22 42.3 83 16 86.7 1433 53.6 0621 10.3 0144 -5.8 1219 - - - - - - - 12.4
5/9/24 87.6 1543 48.5 0623 0.00 11.56 2.1 14.7 1519 N | 8 41.6 92 11 85.2 1707 51.0 0619 10.1 2017 -5.9 1416 - - - - - - - 12.4
5/8/24 81.5 1525 46.5 0545 0.00 11.56 2.5 14.5 1135 WSW | 240 43.9 94 22 78.9 1633 49.1 0540 7.7 0045 -6.2 1342 - - - - - - - 12.4
5/7/24 79.4 1605 44.0 0513 0.00 11.56 2.3 14.2 1802 WNW | 291 43.6 94 25 75.4 1605 46.5 0501 7.2 2301 -6.6 1427 - - - - - - - 12.4
5/6/24 73.0 1507 40.0 0551 0.00 11.56 1.8 11.2 1553 SW | 236 41.9 95 26 71.6 1744 42.0 0606 7.7 2149 -6.2 1214 - - - - - - - 12.4
5/5/24 69.0 1519 43.6 0627 0.00 11.56 2.5 16.4 1819 WNW | 288 41.9 96 28 64.4 1515 44.9 0631 7.5 2326 -7.1 1519 - - - - - - 0.62 12.4
5/4/24 74.9 1112 48.2 0059 0.62 11.56 3.1 16.4 1905 WNW | 297 47.0 96 32 71.9 1123 49.0 0058 6.6 0229 -6.5 1034 0.02 1911 0.15 1920 0.28 1951 0.62 12.4
5/3/24 86.0 1513 48.6 0600 0.00 10.94 2.0 16.4 1149 SSW | 207 48.0 90 26 82.3 1627 52.0 0506 8.8 0120 -6.8 1449 - - - - - - - 12.4
5/2/24 85.9 1559 47.2 0542 0.00 10.94 2.1 14.5 1226 SSW | 211 41.9 90 16 82.5 1640 50.8 0615 8.6 2104 -6.8 1415 - - - - - - - 12.4
5/1/24 81.7 1506 45.3 0620 0.00 10.94 2.5 14.0 1139 WSW | 251 42.5 93 24 77.5 1549 49.4 0630 9.3 0525 -6.4 1445 - - - - - - - 12.4
4/30/24 82.8 1445 45.7 0612 0.00 10.94 2.5 16.4 1046 SW | 218 41.4 85 20 79.0 1639 48.7 0641 7.4 2258 -7.5 1454 - - - - - - - 12.4
4/29/24 82.4 1550 50.2 0614 0.00 10.94 2.7 14.9 1501 WNW | 282 44.8 84 24 77.5 1600 52.5 0650 7.8 2356 -6.9 1347 - - - - - - - 12.4
4/28/24 81.9 1512 47.1 0613 0.00 10.94 1.8 13.8 1415 SW | 221 46.7 92 26 77.9 1648 49.5 0558 6.7 2246 -6.8 1510 - - - - - - - 12.4
4/27/24 75.0 1452 44.8 0629 0.00 10.94 1.9 11.8 1650 W | 277 44.9 92 30 71.7 1646 46.5 0633 6.8 2048 -6.7 1404 - - - - - - - 12.4
Max 96.3 - 60.8 - 0.62 11.56 3.1 20.8 - - 54.5 96 32 92.3 - 64.2 - 11.7 - -5.1 - - - - - - - 0.62 12.5
Avg - - - - - - 2.2 - - - 46.0 - - - - - - - - - - - - - - - - 0.62 -
Min 69.0 - 40.0 - 0.00 10.94 1.7 11.2 - - 40.6 76 9 64.4 - 42.0 - 4.7 - -7.5 - - - - - - - 0.62 12.4

Daily Bio-Meteorological Summary

Last 30 Days

Daily Data | America/Los_Angeles
as of 5/27/24 1:56 AM PDT
Date Daily Max Temp (°F) Daily Min Temp (°F) Daily Rain (In) GDDs (DL) GDDs (Mx/Mn) Seas GDDs (DL) Seas GDDs (Smpl) Chilling <=45F (hrs) Chill Hrs 32-45F (hrs) Utah Chilling (Units) Chill Portions Hrs 70-85F (hrs) Hrs > 95F (hrs) Powdery Mildew Stress (pts) Bee Hrs Today (Hrs) Hrs <= 32F (hrs) Hrs <= 28F (hrs)
5/26/24 87.2 51.1 0.00 18.6 19.2 852 867 0.0 0.0 0.0 - 5.35 0.00 10 12.8 0.0 0.0
5/25/24 82.5 50.1 0.00 15.7 16.3 834 848 0.0 0.0 0.0 - 9.54 0.00 20 12.6 0.0 0.0
5/24/24 87.3 51.1 0.00 19.2 19.2 818 832 0.0 0.0 0.0 - 5.77 0.00 0 12.9 0.0 0.0
5/23/24 88.5 52.8 0.00 20.2 20.6 799 813 0.0 0.0 0.0 - 5.07 0.00 0 13.7 0.0 0.0
5/22/24 92.1 51.9 0.00 21.5 22.0 779 792 0.0 0.0 0.0 - 3.10 0.00 10 13.0 0.0 0.0
5/21/24 88.3 51.0 0.00 19.4 19.6 757 770 0.0 0.0 0.0 - 5.03 0.00 20 12.7 0.0 0.0
5/20/24 85.6 52.8 0.00 18.7 19.2 738 751 0.0 0.0 0.0 - 10.55 0.00 30 13.1 0.0 0.0
5/19/24 90.4 57.0 0.00 21.8 23.7 719 731 0.0 0.0 0.0 - 4.04 0.00 10 13.6 0.0 0.0
5/18/24 91.1 59.3 0.00 25.5 25.2 697 708 0.0 0.0 -22.5 - 5.45 0.00 20 13.5 0.0 0.0
5/17/24 92.2 57.8 0.00 24.6 25.0 672 682 0.0 0.0 -17.5 - 4.08 0.00 30 13.5 0.0 0.0
5/16/24 94.6 60.8 0.00 27.0 27.6 647 658 0.0 0.0 -21.5 - 2.96 0.00 40 13.5 0.0 0.0
5/15/24 94.1 57.2 0.00 26.0 25.7 620 630 0.0 0.0 -18.0 - 3.09 0.00 50 13.5 0.0 0.0
5/14/24 91.9 56.5 0.00 23.9 24.2 594 604 0.0 0.0 -17.0 - 4.78 0.00 60 13.5 0.0 0.0
5/13/24 94.2 55.9 0.00 24.7 25.1 570 580 0.0 0.0 -17.5 - 4.07 0.00 70 13.4 0.0 0.0
5/12/24 96.3 54.4 0.00 25.4 25.3 546 555 0.0 0.0 -16.5 - 2.74 1.49 80 13.0 0.0 0.0
5/11/24 92.8 53.3 0.00 23.5 23.1 520 530 0.0 0.0 -16.5 - 2.67 0.00 90 12.8 0.0 0.0
5/10/24 89.5 50.5 0.00 21.5 20.0 497 507 0.0 0.0 -16.5 - 6.76 0.00 100 12.6 0.0 0.0
5/9/24 87.6 48.5 0.00 19.6 18.0 475 487 0.0 0.0 -16.5 - 4.81 0.00 90 12.2 0.0 0.0
5/8/24 81.5 46.5 0.00 15.0 14.0 456 468 0.0 0.0 0.0 - 9.14 0.00 100 12.0 0.0 0.0
5/7/24 79.4 44.0 0.00 12.2 11.7 441 454 1.4 1.4 0.5 - 8.18 0.00 90 11.4 0.0 0.0
5/6/24 73.0 40.0 0.00 9.1 6.5 428 443 6.0 6.0 1.0 - 4.65 0.00 70 10.4 0.0 0.0
5/5/24 69.0 43.6 0.00 5.3 6.3 419 436 1.3 1.3 3.5 - 0.00 0.00 80 9.1 0.0 0.0
5/4/24 74.9 48.2 0.62 9.0 11.6 414 430 0.0 0.0 3.0 - 3.39 0.00 90 9.7 0.0 0.0
5/3/24 86.0 48.6 0.00 17.1 17.3 405 418 0.0 0.0 0.0 - 9.74 0.00 100 12.0 0.0 0.0
5/2/24 85.9 47.2 0.00 15.8 16.6 388 401 0.0 0.0 0.0 - 9.80 0.00 100 11.9 0.0 0.0
5/1/24 81.7 45.3 0.00 13.7 13.5 372 384 0.0 0.0 0.5 - 8.40 0.00 100 11.6 0.0 0.0
4/30/24 82.8 45.7 0.00 14.7 14.2 358 371 0.0 0.0 0.0 - 8.63 0.00 90 11.7 0.0 0.0
4/29/24 82.4 50.2 0.00 14.8 16.3 344 357 0.0 0.0 0.0 70 8.55 0.00 70 11.8 0.0 0.0
4/28/24 81.9 47.1 0.00 15.0 14.5 329 340 0.0 0.0 0.0 70 9.61 0.00 50 11.7 0.0 0.0
4/27/24 75.0 44.8 0.00 10.5 9.9 314 326 0.1 0.1 0.0 70 5.10 0.00 30 10.9 0.0 0.0
Max 96.3 60.8 0.62 27.0 27.6 - - 6.0 6.0 3.5 70 10.55 1.49 - 13.7 0.0 0.0
Avg - - - 18.3 18.4 - - 0.3 0.3 -5.7 70 5.84 0.05 - 12.3 0.0 0.0
Min 69.0 40.0 0.00 5.3 6.3 - - 0.0 0.0 -22.5 70 0.00 0.00 - 9.1 0.0 0.0
Total - - - 548.7 551.4 - - 8.8 8.8 -171.5 - 175.05 1.49 - 370.0 0.0 0.0

Climate Summary

Lindcove R.E.C.

Current Year | Showing 1/1/24 - 5/26/24
as of 5/27/24 1:56 AM PDT
Temperature (°F) Max Wind Gust (mph) Precip (in) Days
Month Days Avg High Avg Low Max Min Avg Max Total Daily Min Temp < 28 Daily Min Temp < 32 Daily Max Temp > 90 Daily Max Temp > 100 Daily Rain > 0.01 Daily Rain > 0.1
Jan 2024 31 62.3 40.7 80.2 29.5 9.7 16.9 1.95 0 4 0 0 11 6
Feb 2024 29 66.3 42.3 77.1 32.4 12.4 28.9 3.56 0 0 0 0 11 7
Mar 2024 31 70.3 43.5 82.3 36.6 12.8 21.5 2.27 0 0 0 0 10 8
Apr 2024 30 77.9 46.6 92.5 35.6 13.3 25.6 0.89 0 0 2 0 5 4
May 2024 26 86.8 51.4 96.3 40 14 20.8 0.62 0 0 10 0 1 1
Total 147 - - - - - - 9.29 0 4 12 0 38 26
Average 29.4 72.3 44.7 72.3 44.7 12.4 - 1.86 0 0.8 2.4 0 7.6 5.2
Maximum 31 86.8 51.4 96.3 - - 28.9 3.56 0 4 10 0 11 8
Minimum 26 62.3 40.7 - 29.5 - - 0.62 0 0 0 0 1 1

Climate Summary

Lindcove R.E.C.

Last Year | Showing 1/1/23 - 12/31/23
as of 5/27/24 1:56 AM PDT
Temperature (°F) Max Wind Gust (mph) Precip (in) Days
Month Days Avg High Avg Low Max Min Avg Max Total Daily Min Temp < 28 Daily Min Temp < 32 Daily Max Temp > 90 Daily Max Temp > 100 Daily Rain > 0.01 Daily Rain > 0.1
Jan 2023 31 60.4 38.5 68.5 30.3 11.8 30.7 4.35 0 5 0 0 12 7
Feb 2023 28 62.5 33.9 75.4 28.2 12.9 30.7 3.96 0 9 0 0 9 5
Mar 2023 31 64.1 41.3 74.9 30.8 14.9 32 7.49 0 3 0 0 14 13
Apr 2023 30 79.2 45.1 98.2 30.8 12.9 26.3 0.04 0 1 5 0 1 0
May 2023 31 85.5 53.8 101.6 43.5 13.6 17.3 0.08 0 0 12 2 3 0
Jun 2023 30 90.1 58.5 105.9 47.1 13.6 17.3 0.05 0 0 12 2 1 0
Jul 2023 31 103.5 65 111.4 56.6 13.5 16 0.01 0 0 31 25 0 0
Aug 2023 31 98.5 64.4 108.5 57.6 13.4 22.6 0.79 0 0 29 12 3 1
Sep 2023 30 90.3 59.5 100.4 52.7 12.2 16.4 0.15 0 0 14 1 1 1
Oct 2023 31 84.3 49.8 100.7 35.5 10.1 15.3 0.02 0 0 10 1 1 0
Nov 2023 30 73.6 38.7 83.7 29.6 9.1 17.5 0.24 0 5 0 0 4 0
Dec 2023 31 65.9 38.5 83.3 29.4 8.6 16.9 1.06 0 9 0 0 5 3
Total 365 - - - - - - 18.24 0 32 113 43 54 30
Average 30.4 79.9 49 79.9 49 12.2 - 1.52 0 2.7 9.4 3.6 4.5 2.5
Maximum 31 103.5 65 111.4 - - 32 7.49 0 9 31 25 14 13
Minimum 28 60.4 33.9 - 28.2 - - 0.01 0 0 0 0 0 0
Calm: 0.0%
Calm: 0.0%